sensor_id;sensor_type;location;lat;lon;timestamp;pressure;altitude;pressure_sealevel;temperature;humidity
82249;BME280;71851;49.092;18.918;2024-03-07T00:02:51;97349.19;;;7.12;61.17
82249;BME280;71851;49.092;18.918;2024-03-07T00:05:54;97345.44;;;7.06;60.19
82249;BME280;71851;49.092;18.918;2024-03-07T00:08:54;97343.81;;;7.05;59.91
82249;BME280;71851;49.092;18.918;2024-03-07T00:11:55;97340.50;;;6.95;59.77
82249;BME280;71851;49.092;18.918;2024-03-07T00:14:55;97338.44;;;7.07;59.54
82249;BME280;71851;49.092;18.918;2024-03-07T00:17:56;97351.03;;;7.11;58.88
82249;BME280;71851;49.092;18.918;2024-03-07T00:20:56;97345.56;;;6.97;60.05
82249;BME280;71851;49.092;18.918;2024-03-07T00:23:57;97350.94;;;6.95;60.21
82249;BME280;71851;49.092;18.918;2024-03-07T00:26:57;97346.41;;;6.97;60.09
82249;BME280;71851;49.092;18.918;2024-03-07T00:29:59;97336.72;;;6.89;60.36
82249;BME280;71851;49.092;18.918;2024-03-07T00:32:59;97335.75;;;6.91;60.29
82249;BME280;71851;49.092;18.918;2024-03-07T00:36:00;97343.22;;;6.85;60.47
82249;BME280;71851;49.092;18.918;2024-03-07T00:39:01;97336.38;;;6.84;60.36
82249;BME280;71851;49.092;18.918;2024-03-07T00:42:03;97341.56;;;6.76;60.51
82249;BME280;71851;49.092;18.918;2024-03-07T00:45:04;97337.78;;;6.71;60.65
82249;BME280;71851;49.092;18.918;2024-03-07T00:48:05;97337.59;;;6.64;60.41
82249;BME280;71851;49.092;18.918;2024-03-07T00:51:05;97330.16;;;6.52;60.75
82249;BME280;71851;49.092;18.918;2024-03-07T00:54:06;97332.63;;;6.53;60.37
82249;BME280;71851;49.092;18.918;2024-03-07T00:57:07;97334.53;;;6.43;60.74
82249;BME280;71851;49.092;18.918;2024-03-07T01:00:08;97326.47;;;6.29;60.92
82249;BME280;71851;49.092;18.918;2024-03-07T01:03:14;97332.72;;;6.18;60.67
82249;BME280;71851;49.092;18.918;2024-03-07T01:06:14;97327.00;;;6.15;61.23
82249;BME280;71851;49.092;18.918;2024-03-07T01:09:15;97337.53;;;6.05;60.83
82249;BME280;71851;49.092;18.918;2024-03-07T01:12:16;97333.78;;;6.08;60.42
82249;BME280;71851;49.092;18.918;2024-03-07T01:15:17;97323.97;;;6.01;60.73
82249;BME280;71851;49.092;18.918;2024-03-07T01:18:18;97323.47;;;5.98;60.93
82249;BME280;71851;49.092;18.918;2024-03-07T01:21:18;97319.00;;;5.90;60.90
82249;BME280;71851;49.092;18.918;2024-03-07T01:24:18;97316.31;;;5.82;60.83
82249;BME280;71851;49.092;18.918;2024-03-07T01:27:20;97321.69;;;5.81;60.88
82249;BME280;71851;49.092;18.918;2024-03-07T01:30:20;97310.22;;;5.74;61.24
82249;BME280;71851;49.092;18.918;2024-03-07T01:33:23;97319.28;;;5.70;61.66
82249;BME280;71851;49.092;18.918;2024-03-07T01:36:24;97317.28;;;5.64;62.03
82249;BME280;71851;49.092;18.918;2024-03-07T01:39:24;97313.66;;;5.57;62.03
82249;BME280;71851;49.092;18.918;2024-03-07T01:42:25;97321.81;;;5.62;62.01
82249;BME280;71851;49.092;18.918;2024-03-07T01:45:25;97316.94;;;5.59;61.97
82249;BME280;71851;49.092;18.918;2024-03-07T01:48:27;97313.06;;;5.63;61.66
82249;BME280;71851;49.092;18.918;2024-03-07T01:51:31;97317.13;;;5.65;61.65
82249;BME280;71851;49.092;18.918;2024-03-07T01:54:32;97327.59;;;5.73;61.37
82249;BME280;71851;49.092;18.918;2024-03-07T01:57:33;97319.00;;;5.73;61.78
82249;BME280;71851;49.092;18.918;2024-03-07T02:00:35;97323.03;;;5.85;61.78
82249;BME280;71851;49.092;18.918;2024-03-07T02:03:35;97326.50;;;5.93;61.70
82249;BME280;71851;49.092;18.918;2024-03-07T02:06:36;97323.31;;;5.99;60.90
82249;BME280;71851;49.092;18.918;2024-03-07T02:09:37;97328.88;;;6.05;60.71
82249;BME280;71851;49.092;18.918;2024-03-07T02:12:38;97323.75;;;6.13;61.10
82249;BME280;71851;49.092;18.918;2024-03-07T02:15:39;97312.22;;;6.15;60.69
82249;BME280;71851;49.092;18.918;2024-03-07T02:18:39;97322.53;;;6.25;60.69
82249;BME280;71851;49.092;18.918;2024-03-07T02:21:40;97305.91;;;6.26;60.02
82249;BME280;71851;49.092;18.918;2024-03-07T02:24:40;97322.81;;;6.22;59.26
82249;BME280;71851;49.092;18.918;2024-03-07T02:27:41;97306.78;;;6.09;59.41
82249;BME280;71851;49.092;18.918;2024-03-07T02:30:41;97307.91;;;6.06;59.78
82249;BME280;71851;49.092;18.918;2024-03-07T02:33:41;97311.25;;;5.98;60.44
82249;BME280;71851;49.092;18.918;2024-03-07T02:36:42;97307.00;;;5.97;60.46
82249;BME280;71851;49.092;18.918;2024-03-07T02:39:42;97305.56;;;6.88;57.51
82249;BME280;71851;49.092;18.918;2024-03-07T02:42:44;97305.94;;;6.34;59.11
82249;BME280;71851;49.092;18.918;2024-03-07T02:45:44;97310.66;;;6.30;59.23
82249;BME280;71851;49.092;18.918;2024-03-07T02:48:45;97317.53;;;6.31;59.50
82249;BME280;71851;49.092;18.918;2024-03-07T02:51:45;97316.03;;;6.29;59.33
82249;BME280;71851;49.092;18.918;2024-03-07T02:54:46;97308.06;;;6.30;58.90
82249;BME280;71851;49.092;18.918;2024-03-07T02:57:47;97313.16;;;6.40;58.65
82249;BME280;71851;49.092;18.918;2024-03-07T03:00:48;97311.69;;;6.37;58.95
82249;BME280;71851;49.092;18.918;2024-03-07T03:03:49;97315.06;;;6.30;59.16
82249;BME280;71851;49.092;18.918;2024-03-07T03:06:49;97322.91;;;6.97;57.18
82249;BME280;71851;49.092;18.918;2024-03-07T03:09:51;97322.97;;;6.46;58.47
82249;BME280;71851;49.092;18.918;2024-03-07T03:12:52;97323.44;;;6.41;58.91
82249;BME280;71851;49.092;18.918;2024-03-07T03:15:55;97333.41;;;6.46;59.30
82249;BME280;71851;49.092;18.918;2024-03-07T03:18:58;97324.19;;;6.34;58.94
82249;BME280;71851;49.092;18.918;2024-03-07T03:21:59;97321.13;;;6.13;59.28
82249;BME280;71851;49.092;18.918;2024-03-07T03:24:59;97328.16;;;5.94;59.72
82249;BME280;71851;49.092;18.918;2024-03-07T03:28:01;97327.94;;;5.88;60.00
82249;BME280;71851;49.092;18.918;2024-03-07T03:31:01;97312.31;;;5.70;60.88
82249;BME280;71851;49.092;18.918;2024-03-07T03:34:03;97319.72;;;5.65;61.03
82249;BME280;71851;49.092;18.918;2024-03-07T03:37:03;97317.22;;;5.56;61.36
82249;BME280;71851;49.092;18.918;2024-03-07T03:40:05;97316.38;;;5.55;62.13
82249;BME280;71851;49.092;18.918;2024-03-07T03:43:06;97318.22;;;5.45;61.53
82249;BME280;71851;49.092;18.918;2024-03-07T03:46:10;97326.19;;;5.44;62.42
82249;BME280;71851;49.092;18.918;2024-03-07T03:49:11;97319.50;;;5.41;62.32
82249;BME280;71851;49.092;18.918;2024-03-07T03:52:11;97322.16;;;5.32;62.06
82249;BME280;71851;49.092;18.918;2024-03-07T03:55:12;97324.00;;;5.22;62.63
82249;BME280;71851;49.092;18.918;2024-03-07T03:58:13;97320.75;;;5.37;62.26
82249;BME280;71851;49.092;18.918;2024-03-07T04:01:13;97320.66;;;5.11;63.44
82249;BME280;71851;49.092;18.918;2024-03-07T04:04:14;97315.75;;;5.08;64.49
82249;BME280;71851;49.092;18.918;2024-03-07T04:07:15;97317.47;;;5.17;63.90
82249;BME280;71851;49.092;18.918;2024-03-07T04:10:16;97315.63;;;5.28;63.25
82249;BME280;71851;49.092;18.918;2024-03-07T04:13:17;97327.63;;;5.38;62.45
82249;BME280;71851;49.092;18.918;2024-03-07T04:16:18;97321.00;;;5.44;62.08
82249;BME280;71851;49.092;18.918;2024-03-07T04:19:19;97319.66;;;5.57;61.32
82249;BME280;71851;49.092;18.918;2024-03-07T04:22:20;97324.94;;;5.65;61.95
82249;BME280;71851;49.092;18.918;2024-03-07T04:25:24;97324.13;;;5.82;60.23
82249;BME280;71851;49.092;18.918;2024-03-07T04:28:25;97329.31;;;5.82;59.65
82249;BME280;71851;49.092;18.918;2024-03-07T04:31:25;97333.22;;;5.96;59.77
82249;BME280;71851;49.092;18.918;2024-03-07T04:34:28;97329.25;;;6.10;58.63
82249;BME280;71851;49.092;18.918;2024-03-07T04:37:30;97325.53;;;6.12;58.08
82249;BME280;71851;49.092;18.918;2024-03-07T04:40:32;97333.19;;;6.14;57.66
82249;BME280;71851;49.092;18.918;2024-03-07T04:43:32;97328.03;;;6.22;57.93
82249;BME280;71851;49.092;18.918;2024-03-07T04:46:33;97336.16;;;6.19;57.78
82249;BME280;71851;49.092;18.918;2024-03-07T04:49:34;97329.28;;;6.18;57.57
82249;BME280;71851;49.092;18.918;2024-03-07T04:52:34;97328.06;;;6.04;57.48
82249;BME280;71851;49.092;18.918;2024-03-07T04:55:35;97333.78;;;6.08;58.31
82249;BME280;71851;49.092;18.918;2024-03-07T04:58:35;97336.81;;;5.95;57.78
82249;BME280;71851;49.092;18.918;2024-03-07T05:01:36;97327.78;;;5.89;58.18
82249;BME280;71851;49.092;18.918;2024-03-07T05:04:36;97322.22;;;5.84;58.91
82249;BME280;71851;49.092;18.918;2024-03-07T05:07:36;97328.81;;;5.79;57.78
82249;BME280;71851;49.092;18.918;2024-03-07T05:10:37;97333.13;;;5.70;58.31
82249;BME280;71851;49.092;18.918;2024-03-07T05:13:38;97329.34;;;5.65;58.59
82249;BME280;71851;49.092;18.918;2024-03-07T05:16:38;97338.41;;;5.61;58.28
82249;BME280;71851;49.092;18.918;2024-03-07T05:19:39;97338.41;;;5.61;58.63
82249;BME280;71851;49.092;18.918;2024-03-07T05:22:39;97337.94;;;5.65;58.68
82249;BME280;71851;49.092;18.918;2024-03-07T05:25:50;97341.84;;;5.79;58.05
82249;BME280;71851;49.092;18.918;2024-03-07T05:28:50;97341.94;;;5.87;57.46
82249;BME280;71851;49.092;18.918;2024-03-07T05:31:52;97349.88;;;6.03;57.92
82249;BME280;71851;49.092;18.918;2024-03-07T05:34:53;97334.38;;;6.19;56.57
82249;BME280;71851;49.092;18.918;2024-03-07T05:37:55;97336.09;;;6.36;55.86
82249;BME280;71851;49.092;18.918;2024-03-07T05:40:56;97343.81;;;6.46;55.73
82249;BME280;71851;49.092;18.918;2024-03-07T05:43:57;97339.97;;;6.58;55.09
82249;BME280;71851;49.092;18.918;2024-03-07T05:46:57;97343.13;;;6.69;55.06
82249;BME280;71851;49.092;18.918;2024-03-07T05:49:57;97346.19;;;6.91;54.73
82249;BME280;71851;49.092;18.918;2024-03-07T05:52:58;97351.25;;;6.92;54.63
82249;BME280;71851;49.092;18.918;2024-03-07T05:55:58;97357.53;;;7.07;54.31
82249;BME280;71851;49.092;18.918;2024-03-07T05:58:59;97356.41;;;7.18;53.62
82249;BME280;71851;49.092;18.918;2024-03-07T06:01:59;97353.09;;;7.08;53.60
82249;BME280;71851;49.092;18.918;2024-03-07T06:05:00;97353.50;;;7.21;53.55
82249;BME280;71851;49.092;18.918;2024-03-07T06:08:00;97360.34;;;7.22;53.54
82249;BME280;71851;49.092;18.918;2024-03-07T06:11:01;97355.31;;;7.28;52.97
82249;BME280;71851;49.092;18.918;2024-03-07T06:14:06;97366.94;;;7.42;52.38
82249;BME280;71851;49.092;18.918;2024-03-07T06:17:06;97362.00;;;7.31;52.26
82249;BME280;71851;49.092;18.918;2024-03-07T06:20:07;97361.00;;;7.24;53.35
82249;BME280;71851;49.092;18.918;2024-03-07T06:23:22;97358.28;;;7.33;52.50
82249;BME280;71851;49.092;18.918;2024-03-07T06:26:23;97360.09;;;7.49;52.11
82249;BME280;71851;49.092;18.918;2024-03-07T06:29:38;97351.53;;;7.23;53.07
82249;BME280;71851;49.092;18.918;2024-03-07T06:32:38;97361.00;;;7.24;53.13
82249;BME280;71851;49.092;18.918;2024-03-07T06:35:40;97357.09;;;7.28;53.04
82249;BME280;71851;49.092;18.918;2024-03-07T06:38:41;97367.34;;;7.71;52.02
82249;BME280;71851;49.092;18.918;2024-03-07T06:41:41;97368.50;;;7.93;50.78
82249;BME280;71851;49.092;18.918;2024-03-07T06:44:42;97374.06;;;8.22;50.86
82249;BME280;71851;49.092;18.918;2024-03-07T06:47:42;97369.47;;;8.56;48.99
82249;BME280;71851;49.092;18.918;2024-03-07T06:50:43;97373.06;;;8.71;47.54
82249;BME280;71851;49.092;18.918;2024-03-07T06:53:45;97378.09;;;8.89;47.56
82249;BME280;71851;49.092;18.918;2024-03-07T06:56:49;97384.88;;;9.14;47.16
82249;BME280;71851;49.092;18.918;2024-03-07T06:59:49;97378.53;;;11.62;43.92
82249;BME280;71851;49.092;18.918;2024-03-07T07:02:50;97363.56;;;19.34;29.28
82249;BME280;71851;49.092;18.918;2024-03-07T07:05:51;97362.88;;;23.21;22.27
82249;BME280;71851;49.092;18.918;2024-03-07T07:08:51;97360.69;;;25.38;19.41
82249;BME280;71851;49.092;18.918;2024-03-07T07:11:51;97356.63;;;26.63;17.48
82249;BME280;71851;49.092;18.918;2024-03-07T07:14:52;97356.66;;;27.72;16.42
82249;BME280;71851;49.092;18.918;2024-03-07T07:17:52;97362.34;;;26.90;16.66
82249;BME280;71851;49.092;18.918;2024-03-07T07:20:53;97348.16;;;29.42;14.42
82249;BME280;71851;49.092;18.918;2024-03-07T07:23:53;97344.75;;;31.59;12.65
82249;BME280;71851;49.092;18.918;2024-03-07T07:26:54;97347.22;;;32.68;11.76
82249;BME280;71851;49.092;18.918;2024-03-07T07:29:55;97343.97;;;33.17;11.41
82249;BME280;71851;49.092;18.918;2024-03-07T07:32:55;97344.22;;;33.50;10.34
82249;BME280;71851;49.092;18.918;2024-03-07T07:35:56;97343.06;;;33.51;10.91
82249;BME280;71851;49.092;18.918;2024-03-07T07:38:56;97344.69;;;33.81;10.47
82249;BME280;71851;49.092;18.918;2024-03-07T07:41:57;97320.22;;;34.52;10.03
82249;BME280;71851;49.092;18.918;2024-03-07T07:44:57;97327.78;;;33.67;10.75
82249;BME280;71851;49.092;18.918;2024-03-07T07:47:59;97328.91;;;30.69;12.33
82249;BME280;71851;49.092;18.918;2024-03-07T07:50:59;97322.03;;;30.27;13.08
82249;BME280;71851;49.092;18.918;2024-03-07T07:53:59;97320.75;;;31.13;11.90
82249;BME280;71851;49.092;18.918;2024-03-07T07:57:00;97313.78;;;32.33;11.07
82249;BME280;71851;49.092;18.918;2024-03-07T08:00:00;97313.53;;;31.70;11.67
82249;BME280;71851;49.092;18.918;2024-03-07T08:03:03;97305.81;;;32.28;11.30
82249;BME280;71851;49.092;18.918;2024-03-07T08:06:04;97313.75;;;32.93;10.61
82249;BME280;71851;49.092;18.918;2024-03-07T08:09:04;97325.25;;;34.20;10.07
82249;BME280;71851;49.092;18.918;2024-03-07T08:12:09;97318.28;;;35.18;9.41
82249;BME280;71851;49.092;18.918;2024-03-07T08:15:13;97304.69;;;34.02;10.05
82249;BME280;71851;49.092;18.918;2024-03-07T08:18:14;97321.94;;;32.76;10.72
82249;BME280;71851;49.092;18.918;2024-03-07T08:21:14;97329.25;;;25.48;16.03
82249;BME280;71851;49.092;18.918;2024-03-07T08:24:14;97330.56;;;20.98;21.31
82249;BME280;71851;49.092;18.918;2024-03-07T08:27:15;97341.44;;;18.53;24.17
82249;BME280;71851;49.092;18.918;2024-03-07T08:30:16;97334.41;;;19.05;24.19
82249;BME280;71851;49.092;18.918;2024-03-07T08:33:17;97333.22;;;19.12;24.41
82249;BME280;71851;49.092;18.918;2024-03-07T08:36:21;97341.25;;;17.65;25.33
82249;BME280;71851;49.092;18.918;2024-03-07T08:39:22;97347.75;;;17.33;26.47
82249;BME280;71851;49.092;18.918;2024-03-07T08:42:23;97346.50;;;15.81;28.74
82249;BME280;71851;49.092;18.918;2024-03-07T08:45:25;97338.78;;;15.42;29.72
82249;BME280;71851;49.092;18.918;2024-03-07T08:48:25;97339.94;;;19.26;24.32
82249;BME280;71851;49.092;18.918;2024-03-07T08:51:27;97345.91;;;21.24;22.07
82249;BME280;71851;49.092;18.918;2024-03-07T09:56:31;97408.28;;;12.34;36.85
82249;BME280;71851;49.092;18.918;2024-03-07T09:59:38;97414.13;;;12.57;36.75
82249;BME280;71851;49.092;18.918;2024-03-07T10:02:42;97403.94;;;12.75;36.62
82249;BME280;71851;49.092;18.918;2024-03-07T10:05:44;97415.81;;;12.65;36.68
82249;BME280;71851;49.092;18.918;2024-03-07T10:08:45;97419.03;;;12.39;36.87
82249;BME280;71851;49.092;18.918;2024-03-07T10:11:55;97414.19;;;12.01;38.02
82249;BME280;71851;49.092;18.918;2024-03-07T10:14:56;97409.09;;;11.63;38.78
82249;BME280;71851;49.092;18.918;2024-03-07T10:17:59;97420.81;;;11.32;39.37
82249;BME280;71851;49.092;18.918;2024-03-07T10:21:00;97414.44;;;10.82;40.40
82249;BME280;71851;49.092;18.918;2024-03-07T10:24:05;97430.47;;;10.50;41.50
82249;BME280;71851;49.092;18.918;2024-03-07T10:27:09;97414.84;;;10.57;41.37
82249;BME280;71851;49.092;18.918;2024-03-07T10:30:10;97425.75;;;10.46;42.09
82249;BME280;71851;49.092;18.918;2024-03-07T10:33:14;97421.56;;;10.37;41.67
82249;BME280;71851;49.092;18.918;2024-03-07T10:36:14;97418.41;;;10.18;42.83
82249;BME280;71851;49.092;18.918;2024-03-07T10:39:15;97426.66;;;10.07;43.16
82249;BME280;71851;49.092;18.918;2024-03-07T10:42:17;97423.56;;;10.12;42.14
82249;BME280;71851;49.092;18.918;2024-03-07T10:45:19;97426.72;;;9.99;43.36
82249;BME280;71851;49.092;18.918;2024-03-07T10:48:25;97422.06;;;9.79;43.47
82249;BME280;71851;49.092;18.918;2024-03-07T10:51:37;97426.06;;;9.67;43.51
82249;BME280;71851;49.092;18.918;2024-03-07T10:54:48;97424.38;;;9.43;44.80
82249;BME280;71851;49.092;18.918;2024-03-07T10:57:58;97427.94;;;9.50;44.56
82249;BME280;71851;49.092;18.918;2024-03-07T11:01:04;97427.38;;;9.24;45.46
82249;BME280;71851;49.092;18.918;2024-03-07T11:04:07;97440.41;;;9.40;45.03
82249;BME280;71851;49.092;18.918;2024-03-07T11:07:08;97445.25;;;9.20;45.93
82249;BME280;71851;49.092;18.918;2024-03-07T11:10:11;97452.47;;;9.02;46.41
82249;BME280;71851;49.092;18.918;2024-03-07T11:13:13;97449.47;;;9.29;46.41
82249;BME280;71851;49.092;18.918;2024-03-07T11:16:14;97448.09;;;8.95;46.89
82249;BME280;71851;49.092;18.918;2024-03-07T11:19:25;97446.13;;;8.89;47.21
82249;BME280;71851;49.092;18.918;2024-03-07T11:22:31;97448.56;;;8.98;46.86
82249;BME280;71851;49.092;18.918;2024-03-07T11:25:35;97439.75;;;8.99;46.64
82249;BME280;71851;49.092;18.918;2024-03-07T11:28:40;97450.06;;;8.93;47.52
82249;BME280;71851;49.092;18.918;2024-03-07T11:31:42;97450.69;;;8.95;47.16
82249;BME280;71851;49.092;18.918;2024-03-07T11:34:45;97448.19;;;9.25;46.59
82249;BME280;71851;49.092;18.918;2024-03-07T11:37:50;97441.00;;;9.19;46.60
82249;BME280;71851;49.092;18.918;2024-03-07T11:40:52;97448.34;;;9.24;46.22
82249;BME280;71851;49.092;18.918;2024-03-07T11:43:52;97450.03;;;9.09;46.79
82249;BME280;71851;49.092;18.918;2024-03-07T11:46:55;97452.16;;;9.05;46.81
82249;BME280;71851;49.092;18.918;2024-03-07T11:49:56;97455.78;;;8.80;47.77
82249;BME280;71851;49.092;18.918;2024-03-07T11:52:58;97455.66;;;8.66;48.54
82249;BME280;71851;49.092;18.918;2024-03-07T11:55:59;97456.13;;;8.69;48.29
82249;BME280;71851;49.092;18.918;2024-03-07T11:59:00;97454.84;;;8.57;49.02
82249;BME280;71851;49.092;18.918;2024-03-07T12:02:02;97458.91;;;8.76;48.51
82249;BME280;71851;49.092;18.918;2024-03-07T12:05:04;97449.59;;;8.57;49.26
82249;BME280;71851;49.092;18.918;2024-03-07T12:08:05;97448.88;;;8.15;49.65
82249;BME280;71851;49.092;18.918;2024-03-07T12:11:06;97447.84;;;7.92;50.32
82249;BME280;71851;49.092;18.918;2024-03-07T12:14:06;97443.06;;;8.45;49.16
82249;BME280;71851;49.092;18.918;2024-03-07T12:17:07;97440.09;;;8.48;49.11
82249;BME280;71851;49.092;18.918;2024-03-07T12:20:08;97442.06;;;8.54;48.67
82249;BME280;71851;49.092;18.918;2024-03-07T12:23:24;97443.38;;;8.58;49.31
82249;BME280;71851;49.092;18.918;2024-03-07T12:26:26;97442.41;;;8.35;49.68
82249;BME280;71851;49.092;18.918;2024-03-07T12:29:28;97447.25;;;8.14;50.03
82249;BME280;71851;49.092;18.918;2024-03-07T12:32:28;97446.41;;;7.97;51.45
82249;BME280;71851;49.092;18.918;2024-03-07T12:35:30;97458.09;;;7.69;51.98
82249;BME280;71851;49.092;18.918;2024-03-07T12:38:32;97454.34;;;7.80;51.76
82249;BME280;71851;49.092;18.918;2024-03-07T12:41:41;97451.91;;;7.78;52.16
82249;BME280;71851;49.092;18.918;2024-03-07T12:44:46;97456.41;;;7.60;52.87
82249;BME280;71851;49.092;18.918;2024-03-07T12:47:55;97444.22;;;7.77;52.63
82249;BME280;71851;49.092;18.918;2024-03-07T12:50:56;97456.94;;;7.63;52.16
82249;BME280;71851;49.092;18.918;2024-03-07T12:53:57;97457.91;;;7.62;52.24
82249;BME280;71851;49.092;18.918;2024-03-07T12:56:58;97454.84;;;7.75;52.75
82249;BME280;71851;49.092;18.918;2024-03-07T12:59:58;97455.75;;;7.58;52.54
82249;BME280;71851;49.092;18.918;2024-03-07T13:02:59;97451.81;;;7.54;52.74
82249;BME280;71851;49.092;18.918;2024-03-07T13:05:59;97454.09;;;7.49;53.18
82249;BME280;71851;49.092;18.918;2024-03-07T13:09:01;97454.69;;;7.35;53.06
82249;BME280;71851;49.092;18.918;2024-03-07T13:12:01;97453.44;;;7.47;53.48
82249;BME280;71851;49.092;18.918;2024-03-07T13:15:04;97444.59;;;7.40;53.67
82249;BME280;71851;49.092;18.918;2024-03-07T13:18:10;97455.56;;;7.43;53.23
82249;BME280;71851;49.092;18.918;2024-03-07T13:21:11;97463.03;;;7.38;53.13
82249;BME280;71851;49.092;18.918;2024-03-07T13:24:17;97464.59;;;7.65;52.68
82249;BME280;71851;49.092;18.918;2024-03-07T13:27:17;97463.28;;;7.61;53.05
82249;BME280;71851;49.092;18.918;2024-03-07T13:30:28;97467.88;;;7.67;52.56
82249;BME280;71851;49.092;18.918;2024-03-07T13:33:29;97471.03;;;7.87;51.79
82249;BME280;71851;49.092;18.918;2024-03-07T13:36:29;97460.09;;;7.83;51.64
82249;BME280;71851;49.092;18.918;2024-03-07T13:39:30;97466.78;;;7.86;51.61
82249;BME280;71851;49.092;18.918;2024-03-07T13:42:30;97467.59;;;7.86;51.84
82249;BME280;71851;49.092;18.918;2024-03-07T13:45:34;97469.53;;;7.76;51.76
82249;BME280;71851;49.092;18.918;2024-03-07T13:48:44;97478.59;;;8.06;51.19
82249;BME280;71851;49.092;18.918;2024-03-07T13:51:44;97470.38;;;7.85;51.11
82249;BME280;71851;49.092;18.918;2024-03-07T13:54:50;97470.06;;;7.96;51.38
82249;BME280;71851;49.092;18.918;2024-03-07T13:57:56;97474.81;;;7.92;51.36
82249;BME280;71851;49.092;18.918;2024-03-07T14:08:26;97478.47;;;8.15;50.80
82249;BME280;71851;49.092;18.918;2024-03-07T14:25:47;97483.72;;;7.65;52.36
82249;BME280;71851;49.092;18.918;2024-03-07T14:32:30;97487.84;;;7.42;52.36
82249;BME280;71851;49.092;18.918;2024-03-07T14:36:05;97490.53;;;7.58;52.60
82249;BME280;71851;49.092;18.918;2024-03-07T14:39:10;97483.25;;;7.36;53.22
82249;BME280;71851;49.092;18.918;2024-03-07T14:42:14;97494.25;;;7.22;53.84
82249;BME280;71851;49.092;18.918;2024-03-07T14:45:25;97487.00;;;7.08;53.93
82249;BME280;71851;49.092;18.918;2024-03-07T14:48:27;97492.53;;;7.05;53.83
82249;BME280;71851;49.092;18.918;2024-03-07T14:51:28;97496.25;;;7.03;54.01
82249;BME280;71851;49.092;18.918;2024-03-07T14:54:29;97492.22;;;7.08;54.08
82249;BME280;71851;49.092;18.918;2024-03-07T14:57:29;97498.38;;;6.99;54.28
82249;BME280;71851;49.092;18.918;2024-03-07T15:00:30;97505.00;;;6.94;54.37
82249;BME280;71851;49.092;18.918;2024-03-07T15:03:34;97509.03;;;6.88;55.13
82249;BME280;71851;49.092;18.918;2024-03-07T15:06:34;97510.81;;;6.87;55.47
82249;BME280;71851;49.092;18.918;2024-03-07T15:09:35;97509.91;;;6.71;55.33
82249;BME280;71851;49.092;18.918;2024-03-07T15:12:36;97514.97;;;6.72;55.49
82249;BME280;71851;49.092;18.918;2024-03-07T15:15:38;97498.94;;;6.67;55.12
82249;BME280;71851;49.092;18.918;2024-03-07T15:18:40;97502.44;;;6.76;55.83
82249;BME280;71851;49.092;18.918;2024-03-07T15:21:44;97514.81;;;6.74;55.11
82249;BME280;71851;49.092;18.918;2024-03-07T15:24:44;97516.75;;;6.72;55.09
82249;BME280;71851;49.092;18.918;2024-03-07T15:27:45;97507.75;;;6.66;55.39
82249;BME280;71851;49.092;18.918;2024-03-07T15:30:49;97514.06;;;6.64;55.06
82249;BME280;71851;49.092;18.918;2024-03-07T15:33:50;97517.72;;;6.53;55.79
82249;BME280;71851;49.092;18.918;2024-03-07T15:36:59;97519.72;;;6.59;56.07
82249;BME280;71851;49.092;18.918;2024-03-07T15:40:05;97517.06;;;6.69;56.13
82249;BME280;71851;49.092;18.918;2024-03-07T15:43:12;97515.41;;;6.68;55.97
82249;BME280;71851;49.092;18.918;2024-03-07T15:46:14;97516.09;;;6.52;55.89
82249;BME280;71851;49.092;18.918;2024-03-07T15:49:18;97519.53;;;6.35;55.74
82249;BME280;71851;49.092;18.918;2024-03-07T15:52:18;97520.88;;;6.39;56.51
82249;BME280;71851;49.092;18.918;2024-03-07T15:55:19;97526.38;;;6.36;56.85
82249;BME280;71851;49.092;18.918;2024-03-07T15:58:24;97527.34;;;6.35;56.75
82249;BME280;71851;49.092;18.918;2024-03-07T16:01:25;97516.69;;;6.11;57.15
82249;BME280;71851;49.092;18.918;2024-03-07T16:04:26;97533.03;;;6.03;57.94
82249;BME280;71851;49.092;18.918;2024-03-07T16:07:27;97530.72;;;6.00;57.93
82249;BME280;71851;49.092;18.918;2024-03-07T16:10:28;97529.06;;;5.99;58.58
82249;BME280;71851;49.092;18.918;2024-03-07T16:13:32;97540.72;;;6.05;58.23
82249;BME280;71851;49.092;18.918;2024-03-07T16:16:32;97529.63;;;6.03;58.67
82249;BME280;71851;49.092;18.918;2024-03-07T16:19:32;97524.75;;;5.90;58.77
82249;BME280;71851;49.092;18.918;2024-03-07T16:22:34;97528.03;;;5.92;59.26
82249;BME280;71851;49.092;18.918;2024-03-07T16:25:35;97537.44;;;6.03;59.02
82249;BME280;71851;49.092;18.918;2024-03-07T16:28:40;97528.41;;;5.97;59.07
82249;BME280;71851;49.092;18.918;2024-03-07T16:31:41;97543.44;;;6.03;59.02
82249;BME280;71851;49.092;18.918;2024-03-07T16:34:42;97542.28;;;6.16;58.55
82249;BME280;71851;49.092;18.918;2024-03-07T16:37:47;97542.19;;;6.08;58.81
82249;BME280;71851;49.092;18.918;2024-03-07T16:40:48;97542.34;;;6.06;58.90
82249;BME280;71851;49.092;18.918;2024-03-07T16:43:49;97548.72;;;5.94;59.57
82249;BME280;71851;49.092;18.918;2024-03-07T16:46:50;97549.03;;;5.91;59.63
82249;BME280;71851;49.092;18.918;2024-03-07T16:49:50;97553.78;;;5.95;59.79
82249;BME280;71851;49.092;18.918;2024-03-07T16:52:53;97558.09;;;5.87;60.01
82249;BME280;71851;49.092;18.918;2024-03-07T16:55:53;97556.97;;;5.89;60.33
82249;BME280;71851;49.092;18.918;2024-03-07T16:58:54;97564.63;;;5.81;60.10
82249;BME280;71851;49.092;18.918;2024-03-07T17:01:54;97559.44;;;5.91;59.84
82249;BME280;71851;49.092;18.918;2024-03-07T17:04:55;97567.78;;;5.94;60.35
82249;BME280;71851;49.092;18.918;2024-03-07T17:07:58;97561.50;;;5.87;59.80
82249;BME280;71851;49.092;18.918;2024-03-07T17:11:01;97571.91;;;5.87;60.24
82249;BME280;71851;49.092;18.918;2024-03-07T17:14:02;97573.84;;;5.85;59.98
82249;BME280;71851;49.092;18.918;2024-03-07T17:17:05;97567.47;;;5.97;59.62
82249;BME280;71851;49.092;18.918;2024-03-07T17:20:07;97565.69;;;5.98;59.28
82249;BME280;71851;49.092;18.918;2024-03-07T17:23:08;97567.25;;;5.91;59.75
82249;BME280;71851;49.092;18.918;2024-03-07T17:26:09;97572.25;;;6.02;59.71
82249;BME280;71851;49.092;18.918;2024-03-07T17:29:09;97574.19;;;6.00;59.06